Time;durP1;ratioP1;P1;durP2;ratioP2;P2;SDS_P1;SDS_P2;PMS_P1;PMS_P2;Temp;Humidity;BMP_temperature;BMP_pressure;BME280_temperature;BME280_humidity;BME280_pressure;Samples;Min_cycle;Max_cycle;Signal;HPM_P1;HPM_P2
2023/11/28 00:00:20;;;;;;;18.37;17.87;;;22.00;52.00;;;;;;5002686;28;20466;-72
2023/11/28 00:02:46;;;;;;;19.17;18.63;;;22.00;52.00;;;;;;5003876;28;20470;-71
2023/11/28 00:05:13;;;;;;;18.47;17.87;;;22.00;52.00;;;;;;5002711;28;20473;-71
2023/11/28 00:07:40;;;;;;;19.00;18.40;;;22.00;52.00;;;;;;5000483;28;20554;-71
2023/11/28 00:10:08;;;;;;;19.13;18.63;;;22.00;52.00;;;;;;5000935;28;20474;-70
2023/11/28 00:12:35;;;;;;;18.97;18.37;;;22.00;52.10;;;;;;5003832;28;20450;-69
2023/11/28 00:15:02;;;;;;;18.80;18.30;;;22.00;52.10;;;;;;5003848;28;20482;-69
2023/11/28 00:17:30;;;;;;;18.83;18.13;;;22.00;52.10;;;;;;5000628;28;20478;-69
2023/11/28 00:19:57;;;;;;;18.90;18.30;;;21.90;52.00;;;;;;5000516;28;20479;-69
2023/11/28 00:22:24;;;;;;;19.00;18.40;;;21.90;52.00;;;;;;5002514;28;20536;-69
2023/11/28 00:24:51;;;;;;;19.33;18.73;;;21.90;52.00;;;;;;5003607;28;20484;-72
2023/11/28 00:27:18;;;;;;;18.80;18.10;;;21.90;52.00;;;;;;5001848;28;20505;-71
2023/11/28 00:29:44;;;;;;;17.70;17.20;;;21.90;51.90;;;;;;5000531;28;20495;-72
2023/11/28 00:32:11;;;;;;;18.37;17.77;;;21.90;51.90;;;;;;5000752;28;20479;-71
2023/11/28 00:34:40;;;;;;;18.47;17.97;;;21.90;51.90;;;;;;5003659;28;20480;-71
2023/11/28 00:37:08;;;;;;;18.90;18.40;;;21.90;51.90;;;;;;5003580;28;20508;-72
2023/11/28 00:39:35;;;;;;;18.00;17.50;;;21.90;51.90;;;;;;5000374;28;20463;-72
2023/11/28 00:42:03;;;;;;;18.20;17.60;;;21.90;51.90;;;;;;5000140;28;20945;-72
2023/11/28 00:44:31;;;;;;;18.30;17.80;;;21.90;51.90;;;;;;5000301;28;20856;-72
2023/11/28 00:46:58;;;;;;;18.47;17.97;;;21.80;51.80;;;;;;5000183;28;20478;-71
2023/11/28 00:49:25;;;;;;;18.53;17.97;;;21.80;51.80;;;;;;5002633;28;20541;-71
2023/11/28 00:51:54;;;;;;;18.47;17.97;;;21.80;51.70;;;;;;5003099;28;20847;-72
2023/11/28 00:54:21;;;;;;;18.40;17.90;;;21.80;51.80;;;;;;5001400;28;20438;-71
2023/11/28 00:56:48;;;;;;;18.93;18.33;;;21.80;51.80;;;;;;5000084;28;20474;-72
2023/11/28 00:59:15;;;;;;;17.70;17.10;;;21.80;51.80;;;;;;5004142;28;20501;-72
2023/11/28 01:01:42;;;;;;;18.20;17.60;;;21.80;51.80;;;;;;5007028;28;20481;-72
2023/11/28 01:04:09;;;;;;;17.90;17.40;;;21.80;51.80;;;;;;5007102;28;20945;-72
2023/11/28 01:06:35;;;;;;;18.70;18.20;;;21.80;51.80;;;;;;5003440;28;20521;-72
2023/11/28 01:09:04;;;;;;;17.97;17.40;;;21.80;51.80;;;;;;5003617;28;20505;-71
2023/11/28 01:11:31;;;;;;;18.43;17.93;;;21.80;51.70;;;;;;5006352;28;20448;-71
2023/11/28 01:13:58;;;;;;;17.90;17.40;;;21.80;51.70;;;;;;5007182;28;20877;-71
2023/11/28 01:16:25;;;;;;;17.33;16.83;;;21.80;51.60;;;;;;5004875;28;20446;-71
2023/11/28 01:18:51;;;;;;;17.93;17.43;;;21.80;51.60;;;;;;5003547;28;20505;-71
2023/11/28 01:21:18;;;;;;;18.27;17.77;;;21.80;51.60;;;;;;5004519;28;20486;-70
2023/11/28 01:23:45;;;;;;;17.23;16.73;;;21.80;51.60;;;;;;5006911;28;20958;-71
2023/11/28 01:26:14;;;;;;;18.10;17.60;;;21.80;51.60;;;;;;5006338;28;21084;-71
2023/11/28 01:28:41;;;;;;;18.50;18.00;;;21.80;51.60;;;;;;5003527;28;20576;-70
2023/11/28 01:31:11;;;;;;;18.43;17.93;;;21.80;51.60;;;;;;5003136;28;20474;-71
2023/11/28 01:33:38;;;;;;;18.27;17.77;;;21.70;51.50;;;;;;4995935;28;20443;-71
2023/11/28 01:36:06;;;;;;;24.40;23.70;;;21.70;51.60;;;;;;5003359;28;20443;-71
2023/11/28 01:38:33;;;;;;;19.90;19.30;;;21.70;51.60;;;;;;5006355;28;20497;-71
2023/11/28 01:41:00;;;;;;;19.20;18.60;;;21.70;51.60;;;;;;5001636;28;20961;-70
2023/11/28 01:43:30;;;;;;;19.10;18.60;;;21.70;51.60;;;;;;5005867;28;20809;-70
2023/11/28 01:45:58;;;;;;;19.80;19.20;;;21.70;51.60;;;;;;5006605;28;20472;-71
2023/11/28 01:48:25;;;;;;;19.87;19.27;;;21.70;51.60;;;;;;5004178;28;20498;-71
2023/11/28 01:50:52;;;;;;;18.70;18.20;;;21.70;51.50;;;;;;4998020;28;20470;-71
2023/11/28 01:53:21;;;;;;;18.17;17.67;;;21.70;51.50;;;;;;5004954;28;20478;-71
2023/11/28 01:55:49;;;;;;;17.83;17.33;;;21.70;51.60;;;;;;5003198;28;20470;-71
2023/11/28 01:58:16;;;;;;;18.30;17.80;;;21.70;51.50;;;;;;5003557;28;20497;-71
2023/11/28 02:00:45;;;;;;;17.43;16.93;;;21.70;51.50;;;;;;5006766;28;20530;-71
2023/11/28 02:03:15;;;;;;;16.73;16.33;;;21.70;51.50;;;;;;5003042;28;20474;-71
2023/11/28 02:05:42;;;;;;;18.00;17.50;;;21.70;51.50;;;;;;5006236;28;20481;-71
2023/11/28 02:08:10;;;;;;;18.43;17.93;;;21.70;51.50;;;;;;5005976;28;20518;-71
2023/11/28 02:10:39;;;;;;;17.70;17.20;;;21.70;51.40;;;;;;4995605;28;20467;-71
2023/11/28 02:13:06;;;;;;;17.60;17.00;;;21.70;51.40;;;;;;5002874;28;20458;-71
2023/11/28 02:15:44;;;;;;;18.30;17.80;;;21.70;51.40;;;;;;5005732;28;20473;-71
2023/11/28 02:18:12;;;;;;;18.67;18.17;;;21.70;51.40;;;;;;5003345;28;21145;-71
2023/11/28 02:20:39;;;;;;;18.10;17.60;;;21.70;51.40;;;;;;5002459;28;20475;-71
2023/11/28 02:23:07;;;;;;;17.90;17.40;;;21.60;51.30;;;;;;5002550;28;20878;-71
2023/11/28 02:25:40;;;;;;;19.27;18.77;;;21.60;51.20;;;;;;5005852;28;20474;-71
2023/11/28 02:28:09;;;;;;;18.00;17.50;;;21.60;51.30;;;;;;5005118;28;20488;-71
2023/11/28 02:30:36;;;;;;;17.70;17.20;;;21.60;51.30;;;;;;4994253;28;20485;-71
2023/11/28 02:33:03;;;;;;;18.67;18.17;;;21.60;51.30;;;;;;5002417;28;20443;-71
2023/11/28 02:35:30;;;;;;;18.07;17.57;;;21.60;51.20;;;;;;5004783;28;20837;-71
2023/11/28 02:37:57;;;;;;;18.90;18.40;;;21.60;51.20;;;;;;5005154;28;20494;-71
2023/11/28 02:40:23;;;;;;;17.70;17.20;;;21.60;51.20;;;;;;5003711;28;20457;-71
2023/11/28 02:42:50;;;;;;;17.27;16.77;;;21.60;51.20;;;;;;5002129;28;20882;-71
2023/11/28 02:45:18;;;;;;;18.30;17.80;;;21.60;51.20;;;;;;5010526;28;20478;-71
2023/11/28 02:47:45;;;;;;;17.50;17.00;;;21.60;51.10;;;;;;5003630;28;20518;-71
2023/11/28 02:50:12;;;;;;;17.33;16.83;;;21.60;51.10;;;;;;5005137;28;20477;-71
2023/11/28 02:52:40;;;;;;;18.00;17.50;;;21.60;51.10;;;;;;5001972;28;20471;-71
2023/11/28 02:55:08;;;;;;;17.70;17.20;;;21.60;51.10;;;;;;5001840;28;20526;-71
2023/11/28 02:57:35;;;;;;;17.60;17.10;;;21.60;51.20;;;;;;5001500;28;20467;-71
2023/11/28 03:00:04;;;;;;;17.60;17.10;;;21.60;51.20;;;;;;5001885;28;20447;-71
2023/11/28 03:02:35;;;;;;;18.70;18.20;;;21.60;51.10;;;;;;5004526;28;20450;-71
2023/11/28 03:05:02;;;;;;;18.63;18.13;;;21.60;51.10;;;;;;5005124;28;20504;-71
2023/11/28 03:07:29;;;;;;;17.70;17.20;;;21.60;51.10;;;;;;5002101;28;20517;-71
2023/11/28 03:09:56;;;;;;;18.23;17.73;;;21.60;51.10;;;;;;5001641;28;21049;-71
2023/11/28 03:12:23;;;;;;;17.83;17.33;;;21.60;51.00;;;;;;5003085;28;20447;-71
2023/11/28 03:14:50;;;;;;;18.10;17.60;;;21.60;51.00;;;;;;5005106;28;20555;-71
2023/11/28 03:17:17;;;;;;;18.23;17.73;;;21.60;51.00;;;;;;5003745;28;20469;-71
2023/11/28 03:19:45;;;;;;;17.40;16.90;;;21.50;50.90;;;;;;5001377;28;20487;-71
2023/11/28 03:22:12;;;;;;;18.53;18.03;;;21.60;51.00;;;;;;5001425;28;20489;-71
2023/11/28 03:24:40;;;;;;;18.17;17.67;;;21.50;50.90;;;;;;4988891;28;20863;-71
2023/11/28 03:27:07;;;;;;;18.00;17.50;;;21.50;50.90;;;;;;5004280;28;20939;-71
2023/11/28 03:29:34;;;;;;;17.83;17.33;;;21.50;50.90;;;;;;5001691;28;20513;-71
2023/11/28 03:32:01;;;;;;;17.90;17.40;;;21.50;50.90;;;;;;5001399;28;20474;-71
2023/11/28 03:34:28;;;;;;;17.57;17.07;;;21.50;50.80;;;;;;5003174;28;20482;-71
2023/11/28 03:36:57;;;;;;;18.00;17.50;;;21.50;50.70;;;;;;5000576;28;20481;-71
2023/11/28 03:39:24;;;;;;;18.17;17.67;;;21.50;50.70;;;;;;5000288;28;20885;-71
2023/11/28 03:41:51;;;;;;;18.60;18.10;;;21.50;50.80;;;;;;5001150;28;20479;-71
2023/11/28 03:44:18;;;;;;;18.00;17.50;;;21.50;50.70;;;;;;5001655;28;20479;-71
2023/11/28 03:46:46;;;;;;;17.83;17.33;;;21.50;50.70;;;;;;5001158;28;20958;-71
2023/11/28 03:49:13;;;;;;;17.80;17.30;;;21.50;50.70;;;;;;5003880;28;21195;-71
2023/11/28 03:51:40;;;;;;;18.30;17.80;;;21.50;50.70;;;;;;4993038;28;20485;-71
2023/11/28 03:54:08;;;;;;;18.60;18.00;;;21.50;50.70;;;;;;5000876;28;20482;-71
2023/11/28 03:56:35;;;;;;;18.50;18.00;;;21.50;50.70;;;;;;5003276;28;20474;-71
2023/11/28 03:59:02;;;;;;;19.10;18.50;;;21.50;50.80;;;;;;5004556;28;20481;-71
2023/11/28 04:01:29;;;;;;;19.40;18.80;;;21.50;50.70;;;;;;5002113;28;20448;-71
2023/11/28 04:03:56;;;;;;;19.20;18.70;;;21.50;50.70;;;;;;5000666;28;20443;-71
2023/11/28 04:06:23;;;;;;;19.27;18.77;;;21.50;50.70;;;;;;5001293;28;20931;-71
2023/11/28 04:08:51;;;;;;;19.70;19.10;;;21.50;50.60;;;;;;5004022;28;20907;-71
2023/11/28 04:11:19;;;;;;;19.00;18.50;;;21.50;50.60;;;;;;5003347;28;20457;-71
2023/11/28 04:13:47;;;;;;;19.40;18.80;;;21.50;50.70;;;;;;5000484;28;20451;-71
2023/11/28 04:16:17;;;;;;;20.33;19.73;;;21.50;50.60;;;;;;4998022;28;20482;-71
2023/11/28 04:18:46;;;;;;;20.20;19.60;;;21.50;50.70;;;;;;4999015;28;20462;-71
2023/11/28 04:21:16;;;;;;;20.63;20.03;;;21.50;50.60;;;;;;5003769;28;20454;-71
2023/11/28 04:23:44;;;;;;;20.17;19.53;;;21.50;50.60;;;;;;4992837;28;20455;-71
2023/11/28 04:26:11;;;;;;;19.60;19.10;;;21.50;50.60;;;;;;5000283;28;20479;-71
2023/11/28 04:28:39;;;;;;;21.27;20.67;;;21.50;50.60;;;;;;5003151;28;20566;-71
2023/11/28 04:31:06;;;;;;;19.70;19.10;;;21.50;50.60;;;;;;5003678;28;20847;-71
2023/11/28 04:33:33;;;;;;;20.20;19.60;;;21.50;51.00;;;;;;5000705;28;20482;-71
2023/11/28 04:36:00;;;;;;;19.00;18.40;;;21.50;50.50;;;;;;4999900;28;20470;-71
2023/11/28 04:38:27;;;;;;;18.60;18.10;;;21.50;50.50;;;;;;5001713;28;20491;-71
2023/11/28 04:40:54;;;;;;;20.30;19.70;;;21.50;50.60;;;;;;5003833;28;21012;-71
2023/11/28 04:43:21;;;;;;;20.57;19.77;;;21.50;50.60;;;;;;5002777;28;20547;-71
2023/11/28 04:45:49;;;;;;;20.13;19.53;;;21.50;50.70;;;;;;5000131;28;20486;-71
2023/11/28 04:48:16;;;;;;;19.30;18.80;;;21.50;50.80;;;;;;4996860;28;20573;-71
2023/11/28 04:50:43;;;;;;;19.93;19.33;;;21.50;50.90;;;;;;5003447;28;20474;-71
2023/11/28 04:53:10;;;;;;;20.30;19.70;;;21.50;50.90;;;;;;5003646;28;21154;-71
2023/11/28 04:55:37;;;;;;;18.90;18.40;;;21.50;50.90;;;;;;5000648;28;20943;-71
2023/11/28 04:58:04;;;;;;;18.87;18.37;;;21.50;50.90;;;;;;4999801;28;20878;-72
2023/11/28 05:00:31;;;;;;;20.67;20.07;;;21.50;51.00;;;;;;5001987;28;20443;-71
2023/11/28 05:02:59;;;;;;;21.47;20.87;;;21.50;51.20;;;;;;5003346;28;20565;-70
2023/11/28 05:05:26;;;;;;;21.80;21.10;;;21.50;51.30;;;;;;4995154;28;20887;-70
2023/11/28 05:07:53;;;;;;;21.10;20.50;;;21.50;51.30;;;;;;5003256;28;20541;-70
2023/11/28 05:10:19;;;;;;;20.17;19.57;;;21.50;51.40;;;;;;5002793;28;20484;-70
2023/11/28 05:12:46;;;;;;;21.40;20.80;;;21.50;51.50;;;;;;4999961;28;20474;-69
2023/11/28 05:15:13;;;;;;;22.50;21.80;;;21.50;51.40;;;;;;5003381;28;20480;-70
2023/11/28 05:17:40;;;;;;;21.50;20.90;;;21.40;51.40;;;;;;5000071;28;20935;-69
2023/11/28 05:20:10;;;;;;;22.40;21.63;;;21.50;51.50;;;;;;5000179;28;20868;-69
2023/11/28 05:22:37;;;;;;;22.53;21.83;;;21.40;51.50;;;;;;5001853;28;20526;-70
2023/11/28 05:25:04;;;;;;;22.33;21.70;;;21.40;51.50;;;;;;5003198;28;20470;-70
2023/11/28 05:27:33;;;;;;;22.50;21.80;;;21.40;51.40;;;;;;4991094;28;20479;-68
2023/11/28 05:30:00;;;;;;;21.80;21.13;;;21.40;51.50;;;;;;4996244;28;20536;-68
2023/11/28 05:32:27;;;;;;;22.40;21.70;;;21.40;51.50;;;;;;4998951;28;20478;-68
2023/11/28 05:34:54;;;;;;;22.30;21.60;;;21.40;51.50;;;;;;5003269;28;20478;-68
2023/11/28 05:37:23;;;;;;;23.30;22.60;;;21.40;51.50;;;;;;5002693;28;20469;-68
2023/11/28 05:39:50;;;;;;;23.27;22.53;;;21.40;51.40;;;;;;4998702;28;20475;-68
2023/11/28 05:42:17;;;;;;;22.80;22.00;;;21.40;51.40;;;;;;4999681;28;20439;-68
2023/11/28 05:44:44;;;;;;;24.33;23.33;;;21.40;51.70;;;;;;4987876;28;20438;-68
2023/11/28 05:47:11;;;;;;;23.63;22.73;;;21.50;51.70;;;;;;5006643;28;20442;-68
2023/11/28 05:49:38;;;;;;;26.57;25.23;;;21.50;52.10;;;;;;5001554;28;20486;-68
2023/11/28 05:52:05;;;;;;;25.93;24.63;;;21.50;52.60;;;;;;5002985;28;20485;-68
2023/11/28 05:54:34;;;;;;;28.70;26.47;;;21.50;53.10;;;;;;5002581;28;20488;-67
2023/11/28 05:57:02;;;;;;;25.73;24.53;;;21.50;54.20;;;;;;5003086;28;20958;-67
2023/11/28 05:59:29;;;;;;;27.90;26.23;;;21.50;54.30;;;;;;5004027;28;20462;-67
2023/11/28 06:02:01;;;;;;;27.83;26.13;;;21.50;54.40;;;;;;5006298;28;20480;-67
2023/11/28 06:04:29;;;;;;;25.33;24.10;;;21.60;54.50;;;;;;5004668;28;20453;-67
2023/11/28 06:06:56;;;;;;;26.23;24.87;;;21.60;54.40;;;;;;5002815;28;20442;-67
2023/11/28 06:09:24;;;;;;;25.87;24.67;;;21.60;54.30;;;;;;5002978;28;20568;-68
2023/11/28 06:11:52;;;;;;;25.23;23.43;;;21.60;54.30;;;;;;5006068;28;20450;-68
2023/11/28 06:14:19;;;;;;;25.43;23.77;;;21.60;54.20;;;;;;5006096;28;20477;-67
2023/11/28 06:16:46;;;;;;;24.40;22.73;;;21.70;54.10;;;;;;5003173;28;20453;-68
2023/11/28 06:19:13;;;;;;;23.60;22.50;;;21.70;54.10;;;;;;5003287;28;20497;-67
2023/11/28 06:21:40;;;;;;;24.30;22.93;;;21.70;54.00;;;;;;5005533;28;20508;-67
2023/11/28 06:24:07;;;;;;;26.50;25.13;;;21.70;53.90;;;;;;5006138;28;20474;-68
2023/11/28 06:26:34;;;;;;;24.77;23.50;;;21.70;53.90;;;;;;5003900;28;20528;-68
2023/11/28 06:29:03;;;;;;;26.20;24.50;;;21.70;53.80;;;;;;5002349;28;20974;-68
2023/11/28 06:31:30;;;;;;;24.87;23.90;;;21.80;53.80;;;;;;5004019;28;20443;-67
2023/11/28 06:33:57;;;;;;;24.83;23.80;;;21.80;53.80;;;;;;5006031;28;20474;-67
2023/11/28 06:36:24;;;;;;;23.60;22.57;;;21.80;53.70;;;;;;5005257;28;20481;-68
2023/11/28 06:38:51;;;;;;;24.93;23.53;;;21.80;53.70;;;;;;5002510;28;20497;-68
2023/11/28 06:41:18;;;;;;;23.33;22.43;;;21.80;53.60;;;;;;5002581;28;20443;-67
2023/11/28 06:43:45;;;;;;;23.73;22.63;;;21.80;53.50;;;;;;5005889;28;20851;-68
2023/11/28 06:46:13;;;;;;;22.73;21.73;;;21.80;53.50;;;;;;5005573;28;20504;-68
2023/11/28 06:48:40;;;;;;;24.30;22.70;;;21.80;53.90;;;;;;5002666;28;20513;-68
2023/11/28 06:51:08;;;;;;;24.20;23.07;;;21.80;53.40;;;;;;5002307;28;20466;-67
2023/11/28 06:53:35;;;;;;;21.50;20.37;;;21.80;53.30;;;;;;5004301;28;20481;-68
2023/11/28 06:56:03;;;;;;;21.37;20.50;;;21.80;53.30;;;;;;5005212;28;20500;-67
2023/11/28 06:58:30;;;;;;;23.20;22.30;;;21.80;53.30;;;;;;5003974;28;20454;-68
2023/11/28 07:00:57;;;;;;;25.23;23.93;;;21.80;53.30;;;;;;5002244;28;20457;-67
2023/11/28 07:03:26;;;;;;;25.07;23.40;;;21.90;53.30;;;;;;5002443;28;20453;-68
2023/11/28 07:05:55;;;;;;;25.23;23.57;;;21.80;53.10;;;;;;5005337;28;20478;-67
2023/11/28 07:08:22;;;;;;;23.37;22.63;;;21.90;53.20;;;;;;5004795;28;21027;-68
2023/11/28 07:10:49;;;;;;;25.37;24.27;;;21.90;53.20;;;;;;5002080;28;20470;-67
2023/11/28 07:13:16;;;;;;;23.80;22.70;;;21.90;53.20;;;;;;5001967;28;20471;-67
2023/11/28 07:15:42;;;;;;;24.03;23.10;;;21.90;53.20;;;;;;5004486;28;20470;-68
2023/11/28 07:18:09;;;;;;;25.00;24.00;;;21.90;53.20;;;;;;5005247;28;20482;-67
2023/11/28 07:20:38;;;;;;;23.57;22.67;;;21.90;53.20;;;;;;5002791;28;20512;-68
2023/11/28 07:23:05;;;;;;;25.53;24.53;;;22.00;53.20;;;;;;5001582;28;20447;-67
2023/11/28 07:25:33;;;;;;;23.77;22.77;;;22.00;53.20;;;;;;5002948;28;20443;-69
2023/11/28 07:27:59;;;;;;;24.67;23.30;;;22.00;53.10;;;;;;5004732;28;20977;-68
2023/11/28 07:30:26;;;;;;;24.17;23.27;;;22.00;53.10;;;;;;5004131;28;20842;-67
2023/11/28 07:32:53;;;;;;;24.27;23.10;;;22.00;53.10;;;;;;5001412;28;20989;-68
2023/11/28 07:35:20;;;;;;;23.10;22.10;;;22.00;53.00;;;;;;5001475;28;20871;-67
2023/11/28 07:37:48;;;;;;;22.80;21.77;;;22.00;53.00;;;;;;4993219;28;20849;-68
2023/11/28 07:40:15;;;;;;;23.00;22.10;;;22.00;53.00;;;;;;5001631;28;20486;-68
2023/11/28 07:42:42;;;;;;;22.83;21.93;;;22.00;52.90;;;;;;5003999;28;20493;-68
2023/11/28 07:45:10;;;;;;;23.30;22.40;;;22.00;52.90;;;;;;5004594;28;20473;-68
2023/11/28 07:47:38;;;;;;;21.90;21.17;;;22.10;52.90;;;;;;5002474;28;20446;-67
2023/11/28 07:50:06;;;;;;;22.40;21.60;;;22.10;52.90;;;;;;5001063;28;20912;-68
2023/11/28 07:52:34;;;;;;;24.17;23.30;;;22.10;52.80;;;;;;5002169;28;20474;-68
2023/11/28 07:55:02;;;;;;;23.87;22.83;;;22.10;52.80;;;;;;5004195;28;20823;-68
2023/11/28 07:57:29;;;;;;;23.40;22.70;;;22.10;52.80;;;;;;5002921;28;20476;-68
2023/11/28 07:59:56;;;;;;;23.70;22.87;;;22.10;52.80;;;;;;5000560;28;20475;-68
2023/11/28 08:02:23;;;;;;;26.03;24.77;;;22.10;52.70;;;;;;5000484;28;20598;-67
2023/11/28 08:04:50;;;;;;;24.13;23.40;;;22.10;52.70;;;;;;5003918;28;20470;-67
2023/11/28 08:07:17;;;;;;;24.07;22.90;;;22.10;52.60;;;;;;5003257;28;20482;-68
2023/11/28 08:09:44;;;;;;;21.60;20.90;;;22.10;52.60;;;;;;5000920;28;20526;-68
2023/11/28 08:12:12;;;;;;;23.37;22.67;;;22.10;52.60;;;;;;5000573;28;20443;-68
2023/11/28 08:14:39;;;;;;;25.07;24.17;;;22.10;52.50;;;;;;5002580;28;20823;-69
2023/11/28 08:17:06;;;;;;;24.00;22.90;;;22.10;52.50;;;;;;5003888;28;20512;-68
2023/11/28 08:19:34;;;;;;;24.60;23.70;;;22.10;52.50;;;;;;5002230;28;20461;-68
2023/11/28 08:22:00;;;;;;;22.70;21.90;;;22.10;52.50;;;;;;5000280;28;20451;-68
2023/11/28 08:24:27;;;;;;;24.20;23.50;;;22.10;52.50;;;;;;5000629;28;20943;-68
2023/11/28 08:26:54;;;;;;;22.73;21.93;;;22.10;52.50;;;;;;5003561;28;20470;-68
2023/11/28 08:29:22;;;;;;;23.47;22.70;;;22.10;52.40;;;;;;5003394;28;20486;-68
2023/11/28 08:31:50;;;;;;;22.37;21.57;;;22.20;52.50;;;;;;5003788;28;20446;-68
2023/11/28 08:34:17;;;;;;;23.23;22.27;;;22.20;52.50;;;;;;5003659;28;20449;-68
2023/11/28 08:36:44;;;;;;;21.90;21.10;;;22.10;52.40;;;;;;5000948;28;20446;-68
2023/11/28 08:39:14;;;;;;;22.87;22.17;;;22.20;52.40;;;;;;5000181;28;20459;-67
2023/11/28 08:41:41;;;;;;;23.77;22.97;;;22.20;52.40;;;;;;5002506;28;20478;-68
2023/11/28 08:44:09;;;;;;;23.00;22.20;;;22.20;52.30;;;;;;5003411;28;20470;-69
2023/11/28 08:46:38;;;;;;;24.13;23.33;;;22.20;52.30;;;;;;5001720;28;20529;-69
2023/11/28 08:49:06;;;;;;;23.73;22.83;;;22.20;52.40;;;;;;4999732;28;20487;-68
2023/11/28 08:51:34;;;;;;;24.53;23.70;;;22.20;52.40;;;;;;5001046;28;20482;-68
2023/11/28 08:54:01;;;;;;;23.57;22.80;;;22.20;52.30;;;;;;5003391;28;20502;-68
2023/11/28 08:56:28;;;;;;;24.83;24.00;;;22.20;52.30;;;;;;5002691;28;20881;-68
2023/11/28 08:58:55;;;;;;;24.40;23.53;;;22.20;52.30;;;;;;4999928;28;20517;-67
2023/11/28 09:01:22;;;;;;;24.13;23.33;;;22.20;52.30;;;;;;5000100;28;20475;-68
2023/11/28 09:03:51;;;;;;;24.93;24.10;;;22.20;52.20;;;;;;5002957;28;20477;-67
2023/11/28 09:06:18;;;;;;;22.47;21.77;;;22.20;52.20;;;;;;5003275;28;20937;-69
2023/11/28 09:08:45;;;;;;;23.37;22.57;;;22.20;52.20;;;;;;5000295;28;20569;-67
2023/11/28 09:11:13;;;;;;;23.33;22.63;;;22.20;52.10;;;;;;5000032;28;20862;-68
2023/11/28 09:13:40;;;;;;;24.30;23.57;;;22.20;52.20;;;;;;5001887;28;20474;-68
2023/11/28 09:16:11;;;;;;;24.30;23.40;;;22.20;52.20;;;;;;5003188;28;20474;-68
2023/11/28 09:18:38;;;;;;;23.10;22.30;;;22.20;52.10;;;;;;5001974;28;20515;-68
2023/11/28 09:21:08;;;;;;;24.03;23.13;;;22.20;52.10;;;;;;5003503;28;20509;-68
2023/11/28 09:23:35;;;;;;;24.10;23.30;;;22.20;52.10;;;;;;5004699;28;20454;-67
2023/11/28 09:26:03;;;;;;;24.00;23.10;;;22.20;52.10;;;;;;5006838;28;20949;-68
2023/11/28 09:28:32;;;;;;;25.03;24.23;;;22.20;52.10;;;;;;5005878;28;20462;-68
2023/11/28 09:30:59;;;;;;;24.70;23.90;;;22.20;52.10;;;;;;5003363;28;20446;-68
2023/11/28 09:33:26;;;;;;;22.13;21.43;;;22.30;52.10;;;;;;5003412;28;20493;-68
2023/11/28 09:35:54;;;;;;;24.43;23.53;;;22.20;52.00;;;;;;4995479;28;20477;-68
2023/11/28 09:38:22;;;;;;;24.27;23.37;;;22.30;52.10;;;;;;5003173;28;20463;-68
2023/11/28 09:40:49;;;;;;;23.93;23.23;;;22.30;52.10;;;;;;5006089;28;20466;-69
2023/11/28 09:43:16;;;;;;;24.40;23.60;;;22.30;52.00;;;;;;5006479;28;20466;-68
2023/11/28 09:45:43;;;;;;;22.27;21.57;;;22.30;52.10;;;;;;5004321;28;20480;-69
2023/11/28 09:48:13;;;;;;;23.10;22.40;;;22.30;52.00;;;;;;5002775;28;20509;-67
2023/11/28 09:50:40;;;;;;;22.73;22.00;;;22.30;52.00;;;;;;5004712;28;20617;-68
2023/11/28 09:53:09;;;;;;;24.20;23.30;;;22.30;52.00;;;;;;5006525;28;20478;-68
2023/11/28 09:55:40;;;;;;;22.40;21.70;;;22.30;51.90;;;;;;5006214;28;20439;-68
2023/11/28 09:58:07;;;;;;;24.17;23.37;;;22.30;51.90;;;;;;5006285;28;20469;-69
2023/11/28 10:00:35;;;;;;;23.43;22.63;;;22.30;51.90;;;;;;5005273;28;20465;-68
2023/11/28 10:03:02;;;;;;;23.43;22.53;;;22.30;51.90;;;;;;5002774;28;20447;-69
2023/11/28 10:05:29;;;;;;;22.67;21.97;;;22.30;51.90;;;;;;5002919;28;20790;-69
2023/11/28 10:07:57;;;;;;;22.10;21.30;;;22.30;51.90;;;;;;5005963;28;21073;-68
2023/11/28 10:10:25;;;;;;;23.00;22.30;;;22.30;51.90;;;;;;5006094;28;20668;-69
2023/11/28 10:12:54;;;;;;;23.63;22.93;;;22.30;51.90;;;;;;5002701;28;20474;-69
2023/11/28 10:15:21;;;;;;;23.50;22.80;;;22.30;51.90;;;;;;5002530;28;20447;-68
2023/11/28 10:17:49;;;;;;;22.07;21.47;;;22.40;51.90;;;;;;5005092;28;20488;-67
2023/11/28 10:20:17;;;;;;;22.70;22.00;;;22.30;51.90;;;;;;5005839;28;20442;-68
2023/11/28 10:22:51;;;;;;;24.20;23.40;;;22.40;51.90;;;;;;5003579;28;20453;-68
2023/11/28 10:25:18;;;;;;;23.70;23.00;;;22.30;51.80;;;;;;5002489;28;20935;-69
2023/11/28 10:27:48;;;;;;;23.50;22.70;;;22.40;51.90;;;;;;5004502;28;20475;-68
2023/11/28 10:30:21;;;;;;;23.53;22.83;;;22.40;51.90;;;;;;5004866;28;20509;-68
2023/11/28 10:32:48;;;;;;;23.20;22.30;;;22.40;51.80;;;;;;5002995;28;20455;-69
2023/11/28 10:35:16;;;;;;;23.20;22.50;;;22.40;51.90;;;;;;5002108;28;20445;-68
2023/11/28 10:37:43;;;;;;;23.10;22.30;;;22.30;51.80;;;;;;5004207;28;20447;-67
2023/11/28 10:40:13;;;;;;;23.10;22.40;;;22.40;51.80;;;;;;5005899;28;20497;-69
2023/11/28 10:42:42;;;;;;;21.90;21.20;;;22.40;51.80;;;;;;5004173;28;20446;-68
2023/11/28 10:45:10;;;;;;;23.70;22.90;;;22.40;51.80;;;;;;5002418;28;20502;-69
2023/11/28 10:47:40;;;;;;;22.97;22.27;;;22.40;51.70;;;;;;5003223;28;20947;-67
2023/11/28 10:50:09;;;;;;;21.83;21.20;;;22.40;51.70;;;;;;5005551;28;20478;-68
2023/11/28 10:52:39;;;;;;;24.17;23.37;;;22.40;51.70;;;;;;5004576;28;20446;-68
2023/11/28 10:55:08;;;;;;;22.20;21.50;;;22.40;51.70;;;;;;5002079;28;20525;-68
2023/11/28 10:57:40;;;;;;;22.60;21.90;;;22.40;51.70;;;;;;5002557;28;20439;-68
2023/11/28 11:00:09;;;;;;;22.80;22.10;;;22.40;51.80;;;;;;5005703;28;20470;-67
2023/11/28 11:02:36;;;;;;;23.00;22.30;;;22.40;51.70;;;;;;5004684;28;20452;-68
2023/11/28 11:05:06;;;;;;;23.53;22.83;;;22.40;51.70;;;;;;5002053;28;20478;-68
2023/11/28 11:07:34;;;;;;;23.63;22.93;;;22.40;51.70;;;;;;5002072;28;20851;-67
2023/11/28 11:10:03;;;;;;;24.30;23.50;;;22.40;51.70;;;;;;5005290;28;20478;-68
2023/11/28 11:12:32;;;;;;;23.20;22.50;;;22.40;51.70;;;;;;5005153;28;20449;-68
2023/11/28 11:15:09;;;;;;;23.60;22.90;;;22.40;51.60;;;;;;4994154;28;20863;-68
2023/11/28 11:17:43;;;;;;;23.67;22.97;;;22.40;51.70;;;;;;5002255;28;20489;-68
2023/11/28 11:20:15;;;;;;;23.30;22.60;;;22.40;51.60;;;;;;5005330;28;20857;-69
2023/11/28 11:22:51;;;;;;;24.80;24.07;;;22.40;51.70;;;;;;5003216;28;20470;-68
2023/11/28 11:25:28;;;;;;;22.40;21.70;;;22.40;51.60;;;;;;5001603;28;20819;-67
2023/11/28 11:27:55;;;;;;;22.60;21.90;;;22.40;51.60;;;;;;5004571;28;20483;-68
2023/11/28 11:30:33;;;;;;;23.60;22.90;;;22.40;51.60;;;;;;5004815;28;20553;-67
2023/11/28 11:33:00;;;;;;;24.50;23.70;;;22.40;51.60;;;;;;4994041;28;20446;-67
2023/11/28 11:35:31;;;;;;;23.47;22.63;;;22.40;51.50;;;;;;5001647;28;20478;-68
2023/11/28 11:37:58;;;;;;;23.03;22.33;;;22.40;51.50;;;;;;4993372;28;20463;-67
2023/11/28 11:40:25;;;;;;;22.23;21.53;;;22.40;51.50;;;;;;5001286;28;20529;-68
2023/11/28 11:42:52;;;;;;;24.40;23.63;;;22.40;51.50;;;;;;5004509;28;20487;-68
2023/11/28 11:45:21;;;;;;;23.87;22.97;;;22.40;51.60;;;;;;5006059;28;20478;-69
2023/11/28 11:47:48;;;;;;;23.07;22.37;;;22.40;51.60;;;;;;5002901;28;20503;-67
2023/11/28 11:50:19;;;;;;;23.50;22.80;;;22.40;51.50;;;;;;5001799;28;20483;-68
2023/11/28 11:52:48;;;;;;;22.53;21.67;;;22.40;51.50;;;;;;5003585;28;20447;-67
2023/11/28 11:55:15;;;;;;;23.50;22.80;;;22.40;51.50;;;;;;5005316;28;20886;-68
2023/11/28 11:57:43;;;;;;;22.23;21.53;;;22.40;51.50;;;;;;5003659;28;20477;-67
2023/11/28 12:00:13;;;;;;;22.00;21.30;;;22.40;51.50;;;;;;5001156;28;20501;-67
2023/11/28 12:02:40;;;;;;;22.90;22.20;;;22.40;51.40;;;;;;5002205;28;20586;-68
2023/11/28 12:05:09;;;;;;;22.20;21.50;;;22.40;51.40;;;;;;5004413;28;20437;-68
2023/11/28 12:07:35;;;;;;;22.43;21.73;;;22.50;51.60;;;;;;5003470;28;20505;-68
2023/11/28 12:10:08;;;;;;;22.13;21.43;;;22.40;51.40;;;;;;5004899;28;20517;-67
2023/11/28 12:12:36;;;;;;;21.70;21.00;;;22.40;51.40;;;;;;5003609;28;20442;-68
2023/11/28 12:15:03;;;;;;;20.90;20.23;;;22.40;51.40;;;;;;5000535;28;20470;-68
2023/11/28 12:17:30;;;;;;;20.70;20.10;;;22.40;51.40;;;;;;5000740;28;20978;-67
2023/11/28 12:19:57;;;;;;;21.50;20.80;;;22.40;51.40;;;;;;5004435;28;20474;-68
2023/11/28 12:22:24;;;;;;;21.17;20.47;;;22.50;51.40;;;;;;5003870;28;20866;-68
2023/11/28 12:24:51;;;;;;;20.30;19.70;;;22.50;51.40;;;;;;5001081;28;20961;-68
2023/11/28 12:27:21;;;;;;;20.80;20.20;;;22.50;51.40;;;;;;5000374;28;20985;-68
2023/11/28 12:29:49;;;;;;;22.00;21.30;;;22.40;51.30;;;;;;5002144;28;20541;-68